Time;durP1;ratioP1;P1;durP2;ratioP2;P2;SDS_P1;SDS_P2;PMS_P1;PMS_P2;Temp;Humidity;BMP_temperature;BMP_pressure;BME280_temperature;BME280_humidity;BME280_pressure;Samples;Min_cycle;Max_cycle;Signal;HPM_P1;HPM_P2
2023/03/24 05:06:37;;;;;;;13.32;2.42;;;13.90;72.30;;;;;;5133099;27;20672;-74
2023/03/24 05:09:03;;;;;;;18.80;3.85;;;13.90;73.20;;;;;;5112988;28;20031;-74
2023/03/24 05:11:29;;;;;;;10.98;2.50;;;14.00;73.00;;;;;;5094790;28;20119;-74
2023/03/24 05:13:55;;;;;;;14.07;3.72;;;14.10;72.90;;;;;;5095165;28;20127;-76
2023/03/24 05:16:29;;;;;;;17.98;3.17;;;14.30;73.40;;;;;;5109470;28;20123;-76
2023/03/24 05:18:55;;;;;;;15.35;2.78;;;14.50;73.20;;;;;;5096565;28;20063;-75
2023/03/24 05:21:21;;;;;;;18.10;3.00;;;14.60;73.30;;;;;;5107778;28;20048;-76
2023/03/24 05:23:47;;;;;;;20.02;3.22;;;14.70;73.40;;;;;;5057629;28;20040;-75
2023/03/24 05:26:12;;;;;;;23.27;3.08;;;14.80;73.50;;;;;;5092664;28;20040;-75
2023/03/24 05:28:38;;;;;;;19.60;2.70;;;14.90;72.80;;;;;;5096599;28;20024;-76
2023/03/24 05:31:04;;;;;;;19.77;4.05;;;15.00;73.20;;;;;;5092280;28;20039;-76
2023/03/24 05:33:30;;;;;;;19.63;3.67;;;15.00;73.30;;;;;;5074205;28;20513;-75
2023/03/24 05:35:56;;;;;;;23.15;3.13;;;15.10;73.40;;;;;;5097498;28;20119;-75
2023/03/24 05:38:21;;;;;;;14.75;2.90;;;15.10;73.50;;;;;;5112109;28;20036;-75
2023/03/24 05:40:47;;;;;;;16.50;2.85;;;15.20;73.70;;;;;;5112224;28;20161;-75
2023/03/24 05:43:13;;;;;;;25.88;3.53;;;15.20;73.70;;;;;;5102100;28;20482;-73
2023/03/24 05:45:39;;;;;;;22.52;3.08;;;15.20;73.90;;;;;;5102118;28;20044;-76
2023/03/24 05:48:05;;;;;;;17.85;3.17;;;15.30;73.90;;;;;;5112478;28;20083;-69
2023/03/24 05:50:31;;;;;;;20.27;2.85;;;15.30;73.60;;;;;;5104864;28;20040;-76
2023/03/24 05:52:57;;;;;;;22.55;3.33;;;15.30;73.90;;;;;;5099880;28;20066;-79
2023/03/24 05:55:29;;;;;;;28.50;3.47;;;15.40;73.90;;;;;;5082352;28;20040;-81
2023/03/24 05:58:27;;;;;;;24.03;3.40;;;15.40;73.50;;;;;;5075524;28;20050;-78
2023/03/24 06:00:58;;;;;;;24.45;3.63;;;15.40;74.00;;;;;;5054428;28;20048;-79
2023/03/24 06:12:51;;;;;;;23.90;3.25;;;15.70;74.20;;;;;;5090896;28;20526;-78
2023/03/24 06:19:26;;;;;;;19.02;2.67;;;15.90;74.40;;;;;;5405654;22;20085;-78
2023/03/24 06:21:55;;;;;;;35.72;5.22;;;16.00;74.20;;;;;;5008223;28;20049;-78
2023/03/24 06:24:30;;;;;;;39.85;7.15;;;16.10;74.00;;;;;;5000354;28;20053;-79
2023/03/24 06:27:00;;;;;;;43.08;6.07;;;16.10;74.30;;;;;;5015901;28;20480;-76
2023/03/24 06:29:29;;;;;;;46.22;6.88;;;16.10;73.60;;;;;;5037735;28;20049;-77
2023/03/24 06:31:58;;;;;;;47.75;5.47;;;16.10;72.90;;;;;;5020644;28;20120;-80
2023/03/24 06:34:24;;;;;;;35.60;4.28;;;16.10;73.10;;;;;;5020688;28;20080;-77
2023/03/24 06:37:07;;;;;;;28.17;4.38;;;16.10;72.70;;;;;;5037381;28;20106;-80
2023/03/24 06:39:33;;;;;;;20.77;4.85;;;16.10;71.50;;;;;;5003628;28;20053;-74
2023/03/24 06:42:00;;;;;;;32.72;5.53;;;16.00;71.20;;;;;;5019872;28;20375;-79
2023/03/24 06:44:26;;;;;;;28.98;4.68;;;16.00;71.70;;;;;;5019888;28;20482;-80
2023/03/24 06:46:51;;;;;;;39.67;5.22;;;16.00;72.10;;;;;;5036897;28;20048;-72
2023/03/24 06:49:17;;;;;;;28.88;5.32;;;16.00;72.30;;;;;;5037042;28;20042;-80
2023/03/24 06:51:43;;;;;;;44.75;6.13;;;16.10;72.50;;;;;;5019551;28;20080;-80
2023/03/24 06:54:09;;;;;;;50.03;6.38;;;16.10;72.70;;;;;;5037232;28;20048;-78
2023/03/24 06:56:35;;;;;;;33.33;5.07;;;16.00;72.50;;;;;;5019283;28;20059;-79
2023/03/24 06:59:24;;;;;;;43.65;5.68;;;16.10;72.60;;;;;;5032324;28;20120;-78
2023/03/24 07:01:54;;;;;;;29.95;3.90;;;16.00;72.60;;;;;;4999810;28;20096;-78
2023/03/24 07:04:20;;;;;;;32.95;5.88;;;16.00;72.60;;;;;;4984257;28;20368;-76
2023/03/24 07:06:49;;;;;;;54.70;6.78;;;16.00;72.70;;;;;;5017021;28;20433;-78
2023/03/24 07:09:15;;;;;;;41.90;5.68;;;16.00;72.60;;;;;;4984034;28;20045;-76
2023/03/24 07:11:41;;;;;;;31.55;5.40;;;16.00;72.60;;;;;;5017421;28;20121;-77
2023/03/24 07:14:07;;;;;;;43.25;5.65;;;16.00;72.50;;;;;;5017065;28;20128;-77
2023/03/24 07:16:32;;;;;;;37.50;4.70;;;15.90;72.30;;;;;;5018647;28;20421;-78
2023/03/24 07:18:58;;;;;;;28.50;4.72;;;15.90;72.20;;;;;;5019352;28;20041;-77
2023/03/24 07:21:24;;;;;;;24.75;4.00;;;15.90;72.00;;;;;;5018967;28;20057;-77
2023/03/24 07:23:50;;;;;;;27.00;4.57;;;15.90;72.00;;;;;;5003032;28;20333;-78
2023/03/24 07:26:15;;;;;;;20.05;3.55;;;15.90;71.90;;;;;;5019245;28;20471;-78
2023/03/24 07:28:41;;;;;;;22.92;4.13;;;15.90;71.80;;;;;;5001867;28;20448;-79
2023/03/24 07:31:09;;;;;;;28.08;4.50;;;15.90;71.70;;;;;;5036512;28;20046;-77
2023/03/24 07:33:37;;;;;;;25.20;4.10;;;15.80;71.60;;;;;;5019058;28;20045;-77
2023/03/24 07:36:03;;;;;;;24.15;4.60;;;15.80;71.50;;;;;;5018162;28;20042;-77
2023/03/24 07:38:29;;;;;;;24.58;3.42;;;15.80;71.40;;;;;;5036598;28;20068;-77
2023/03/24 07:40:58;;;;;;;21.92;4.20;;;15.80;71.20;;;;;;5002663;28;20128;-77
2023/03/24 07:43:24;;;;;;;22.52;4.05;;;15.80;71.20;;;;;;5036227;28;20045;-77
2023/03/24 07:45:50;;;;;;;23.17;3.50;;;15.80;71.40;;;;;;5036787;28;20458;-77
2023/03/24 07:48:15;;;;;;;22.45;4.22;;;15.80;71.40;;;;;;5029425;28;20049;-78
2023/03/24 07:50:41;;;;;;;20.45;3.72;;;15.80;71.50;;;;;;5002568;28;20077;-79
2023/03/24 07:53:08;;;;;;;18.90;3.45;;;15.80;71.50;;;;;;5036499;28;20041;-79
2023/03/24 07:55:36;;;;;;;24.20;3.97;;;15.80;71.60;;;;;;5034605;28;20045;-78
2023/03/24 07:58:05;;;;;;;12.75;2.38;;;15.80;71.90;;;;;;5012062;28;20041;-77
2023/03/24 08:00:32;;;;;;;12.82;3.20;;;15.80;72.00;;;;;;5035935;28;20116;-78
2023/03/24 08:02:59;;;;;;;10.68;2.53;;;15.80;72.20;;;;;;5035329;28;20045;-77
2023/03/24 08:05:28;;;;;;;15.52;2.42;;;15.80;72.10;;;;;;5018544;28;20107;-77
2023/03/24 08:07:54;;;;;;;16.20;3.22;;;15.80;72.00;;;;;;5018563;28;20119;-78
2023/03/24 08:10:26;;;;;;;13.80;2.50;;;15.80;72.00;;;;;;5016639;28;20105;-79
2023/03/24 08:12:52;;;;;;;14.98;2.83;;;15.80;71.90;;;;;;5005048;28;20104;-77
2023/03/24 08:15:18;;;;;;;12.02;2.38;;;15.80;72.20;;;;;;5035918;28;20045;-77
2023/03/24 08:17:44;;;;;;;9.88;2.13;;;15.80;72.30;;;;;;5035726;28;20045;-77
2023/03/24 08:20:14;;;;;;;10.25;2.70;;;15.90;71.70;;;;;;5017418;28;20483;-76
2023/03/24 08:22:42;;;;;;;12.20;2.85;;;15.80;71.40;;;;;;5035520;28;20479;-77
2023/03/24 08:25:10;;;;;;;8.68;1.95;;;15.80;72.20;;;;;;5033256;28;20394;-76
2023/03/24 08:27:37;;;;;;;7.07;1.80;;;15.90;72.50;;;;;;5019401;28;20038;-75
2023/03/24 08:30:20;;;;;;;10.50;2.20;;;15.90;72.50;;;;;;4998672;28;20042;-76
2023/03/24 08:32:49;;;;;;;8.73;1.88;;;15.90;72.40;;;;;;4982658;28;20053;-76
2023/03/24 08:35:18;;;;;;;9.75;1.85;;;16.00;72.40;;;;;;5015848;28;20046;-78
2023/03/24 08:37:44;;;;;;;7.70;1.55;;;16.00;72.10;;;;;;4998344;28;20034;-76
2023/03/24 08:40:13;;;;;;;9.45;2.30;;;16.00;72.00;;;;;;5004153;28;20052;-78
2023/03/24 08:42:40;;;;;;;8.88;1.98;;;16.00;71.40;;;;;;5032343;28;20069;-77
2023/03/24 08:45:07;;;;;;;7.38;1.52;;;16.00;71.20;;;;;;5035056;28;20132;-78
2023/03/24 08:47:33;;;;;;;7.50;1.67;;;16.00;71.10;;;;;;5035468;28;20364;-76
2023/03/24 08:49:59;;;;;;;8.45;1.52;;;16.00;71.10;;;;;;5018169;28;20053;-76
2023/03/24 08:52:25;;;;;;;6.80;1.60;;;16.00;71.10;;;;;;5035383;28;20451;-74
2023/03/24 08:54:51;;;;;;;8.85;2.35;;;16.00;70.90;;;;;;5017824;28;20049;-78
2023/03/24 08:57:17;;;;;;;7.68;1.90;;;16.00;70.90;;;;;;5035427;28;20057;-77
2023/03/24 08:59:43;;;;;;;9.32;2.38;;;16.00;70.80;;;;;;5035245;28;20124;-76
2023/03/24 09:02:12;;;;;;;5.55;1.60;;;16.00;70.60;;;;;;5035921;28;20077;-79
2023/03/24 09:04:38;;;;;;;8.65;1.80;;;16.00;70.50;;;;;;5018001;28;20141;-76
2023/03/24 09:07:04;;;;;;;6.18;1.33;;;16.00;70.40;;;;;;5017621;28;20049;-77
2023/03/24 09:09:32;;;;;;;8.40;1.95;;;16.10;70.50;;;;;;5018495;28;20052;-76
2023/03/24 09:11:58;;;;;;;6.85;1.65;;;16.10;70.50;;;;;;5034210;28;20112;-76
2023/03/24 09:14:24;;;;;;;7.57;1.70;;;16.10;70.50;;;;;;5035163;28;20536;-77
2023/03/24 09:16:50;;;;;;;5.65;1.48;;;16.10;70.40;;;;;;5035269;28;20057;-78
2023/03/24 09:19:16;;;;;;;5.32;1.50;;;16.10;70.40;;;;;;5022915;28;20085;-79
2023/03/24 09:21:46;;;;;;;6.53;1.52;;;16.10;70.30;;;;;;5017136;28;20349;-78
2023/03/24 09:24:13;;;;;;;7.95;2.00;;;16.10;69.90;;;;;;5017086;28;20443;-79
2023/03/24 09:26:39;;;;;;;7.50;1.40;;;16.10;69.80;;;;;;5034956;28;20140;-78
2023/03/24 09:29:05;;;;;;;8.35;1.73;;;16.10;69.70;;;;;;5017350;28;20138;-78
2023/03/24 09:31:31;;;;;;;7.78;1.50;;;16.10;69.60;;;;;;5034597;28;20056;-78
2023/03/24 09:33:59;;;;;;;9.60;1.98;;;16.00;69.60;;;;;;5017712;28;20050;-79
2023/03/24 09:36:25;;;;;;;15.65;2.70;;;16.00;69.60;;;;;;5034940;28;20112;-76
2023/03/24 09:38:51;;;;;;;15.25;2.50;;;16.00;69.60;;;;;;5017184;28;20037;-77
2023/03/24 09:41:24;;;;;;;18.60;3.33;;;16.00;69.50;;;;;;5034776;28;20409;-78
2023/03/24 09:44:19;;;;;;;10.05;2.58;;;16.00;69.30;;;;;;5034685;28;20052;-77
2023/03/24 09:47:11;;;;;;;11.20;1.88;;;16.00;69.20;;;;;;5003647;28;20108;-79
2023/03/24 09:49:39;;;;;;;7.97;2.38;;;15.90;69.10;;;;;;5017243;28;20529;-77
2023/03/24 09:52:09;;;;;;;7.88;1.80;;;15.90;69.10;;;;;;5019060;28;20056;-76
2023/03/24 09:54:57;;;;;;;8.68;2.42;;;15.90;69.00;;;;;;5020771;28;20076;-77
2023/03/24 09:57:41;;;;;;;9.60;2.38;;;15.90;69.00;;;;;;5021288;28;20114;-77
2023/03/24 10:00:25;;;;;;;8.43;2.03;;;15.90;69.00;;;;;;5038254;28;20080;-78
2023/03/24 10:02:51;;;;;;;8.63;2.25;;;15.90;69.00;;;;;;5021569;28;20119;-78
2023/03/24 10:05:22;;;;;;;8.63;2.08;;;15.80;68.90;;;;;;5020485;28;20085;-77
2023/03/24 10:07:56;;;;;;;9.60;2.55;;;15.80;68.80;;;;;;5021381;28;20410;-77
2023/03/24 10:10:34;;;;;;;9.73;2.38;;;15.80;68.80;;;;;;5038196;28;20042;-76
2023/03/24 10:13:12;;;;;;;10.70;2.30;;;15.80;68.70;;;;;;5011328;28;20495;-77
2023/03/24 10:15:54;;;;;;;8.10;2.70;;;15.80;68.70;;;;;;5021540;28;20045;-77
2023/03/24 10:18:44;;;;;;;9.65;2.40;;;15.80;68.70;;;;;;5037815;28;20046;-77
2023/03/24 10:21:13;;;;;;;8.55;2.28;;;15.80;68.60;;;;;;5037760;28;20053;-77
2023/03/24 10:23:50;;;;;;;7.82;2.35;;;15.80;68.60;;;;;;5037774;28;20123;-78
2023/03/24 10:26:28;;;;;;;9.60;1.60;;;15.80;68.50;;;;;;5020222;28;20441;-77
2023/03/24 10:29:06;;;;;;;9.88;1.95;;;15.80;68.50;;;;;;5038000;28;20120;-76
2023/03/24 10:31:35;;;;;;;8.75;2.33;;;15.80;68.40;;;;;;5037830;28;20060;-77
2023/03/24 10:34:00;;;;;;;8.68;2.17;;;15.80;68.40;;;;;;5037819;28;20049;-77
2023/03/24 10:36:27;;;;;;;8.60;3.03;;;15.80;68.30;;;;;;5038082;28;20053;-80
2023/03/24 10:38:54;;;;;;;11.98;2.75;;;15.70;68.30;;;;;;5019754;28;20087;-75
2023/03/24 10:41:26;;;;;;;11.60;2.33;;;15.80;68.10;;;;;;5038030;28;20415;-75
2023/03/24 10:43:55;;;;;;;7.35;2.15;;;15.80;68.60;;;;;;5019998;28;20120;-75
2023/03/24 10:46:26;;;;;;;11.05;2.38;;;15.80;68.50;;;;;;5018796;28;20407;-77
2023/03/24 10:49:07;;;;;;;10.48;2.53;;;15.70;68.70;;;;;;5037527;28;20037;-77
2023/03/24 10:51:36;;;;;;;8.35;2.05;;;15.80;68.70;;;;;;5037353;28;20355;-77
2023/03/24 10:54:16;;;;;;;10.00;2.10;;;15.80;68.60;;;;;;5019696;28;20045;-75
2023/03/24 10:56:51;;;;;;;13.43;2.20;;;15.90;68.50;;;;;;5011329;28;20358;-76
2023/03/24 10:59:18;;;;;;;7.18;1.98;;;16.00;68.50;;;;;;5026385;28;20415;-74
2023/03/24 11:01:44;;;;;;;9.75;1.70;;;16.00;68.50;;;;;;5019755;28;20046;-75
2023/03/24 11:04:14;;;;;;;6.45;1.50;;;16.10;68.60;;;;;;5022404;28;20456;-77
2023/03/24 11:07:01;;;;;;;7.93;1.95;;;16.10;68.50;;;;;;5017180;28;20054;-74
2023/03/24 11:09:26;;;;;;;10.32;2.58;;;16.10;68.50;;;;;;5002311;28;20096;-76
2023/03/24 11:11:54;;;;;;;11.82;2.28;;;16.10;68.50;;;;;;5019168;28;20076;-74
2023/03/24 11:14:24;;;;;;;7.75;1.83;;;16.20;68.50;;;;;;5019129;28;20046;-75
2023/03/24 11:16:51;;;;;;;9.50;2.33;;;16.20;68.50;;;;;;5036629;28;20509;-75
2023/03/24 11:19:20;;;;;;;12.52;2.17;;;16.20;68.60;;;;;;5034219;28;20117;-76
2023/03/24 11:21:47;;;;;;;9.93;2.08;;;16.20;68.70;;;;;;5017265;28;20192;-76
2023/03/24 11:24:16;;;;;;;10.85;2.67;;;16.20;68.90;;;;;;5021597;28;20376;-76
2023/03/24 11:27:01;;;;;;;8.38;2.03;;;16.20;68.80;;;;;;5027536;28;20056;-75
2023/03/24 11:29:29;;;;;;;9.50;2.22;;;16.20;68.80;;;;;;5017506;28;20123;-75
2023/03/24 11:31:57;;;;;;;10.27;2.63;;;16.20;68.90;;;;;;5016881;28;20097;-74
2023/03/24 11:34:33;;;;;;;11.25;1.90;;;16.30;69.00;;;;;;5017011;28;20112;-76
2023/03/24 11:37:07;;;;;;;16.27;2.72;;;16.30;68.90;;;;;;5024228;28;20041;-78
2023/03/24 11:39:34;;;;;;;12.10;2.22;;;16.30;69.00;;;;;;5018893;28;20056;-75
2023/03/24 11:42:05;;;;;;;13.68;2.08;;;16.30;68.70;;;;;;5034548;28;20076;-75
2023/03/24 11:44:37;;;;;;;13.43;2.28;;;16.40;68.60;;;;;;5002836;28;20196;-77
2023/03/24 11:47:37;;;;;;;10.52;2.13;;;16.40;68.70;;;;;;5018826;28;20056;-74
2023/03/24 11:50:08;;;;;;;13.25;2.88;;;16.50;68.50;;;;;;5035992;28;20045;-76
2023/03/24 11:53:10;;;;;;;16.85;3.45;;;16.60;68.30;;;;;;5032761;28;20045;-77
2023/03/24 11:55:52;;;;;;;14.77;2.20;;;16.60;68.10;;;;;;5028599;28;20512;-76
2023/03/24 11:58:53;;;;;;;13.75;2.47;;;16.70;68.20;;;;;;5033926;28;20053;-75
2023/03/24 12:01:20;;;;;;;15.20;2.70;;;16.70;68.20;;;;;;4969078;28;20042;-77
2023/03/24 12:04:21;;;;;;;13.45;2.72;;;16.80;68.10;;;;;;5000774;28;20097;-81
2023/03/24 12:06:54;;;;;;;9.85;2.10;;;16.80;68.00;;;;;;5018515;28;20045;-77
2023/03/24 12:09:24;;;;;;;19.20;3.03;;;16.90;67.90;;;;;;5017866;28;20057;-78
2023/03/24 12:12:04;;;;;;;19.23;3.15;;;16.90;67.60;;;;;;5035531;28;20073;-79
2023/03/24 12:14:39;;;;;;;17.10;2.67;;;16.90;66.40;;;;;;5028833;28;20049;-77
2023/03/24 12:17:15;;;;;;;21.00;3.13;;;16.90;65.70;;;;;;5018321;28;20059;-80
2023/03/24 12:19:56;;;;;;;18.05;3.10;;;16.80;64.40;;;;;;5035294;28;20061;-75
2023/03/24 12:22:31;;;;;;;18.15;3.42;;;16.70;64.70;;;;;;5034193;28;20128;-76
2023/03/24 12:24:57;;;;;;;22.65;2.45;;;16.70;65.00;;;;;;5024617;28;20371;-77
2023/03/24 12:27:52;;;;;;;18.92;3.15;;;16.70;66.40;;;;;;5035872;28;20049;-78
2023/03/24 12:30:26;;;;;;;15.50;2.72;;;16.70;67.00;;;;;;5035720;28;20067;-75
2023/03/24 12:33:03;;;;;;;15.00;3.03;;;16.70;66.70;;;;;;5035403;28;20053;-74
2023/03/24 12:36:01;;;;;;;19.13;2.85;;;16.70;66.10;;;;;;5035423;28;20085;-73
2023/03/24 12:38:47;;;;;;;16.77;2.70;;;16.60;66.00;;;;;;5009434;28;20096;-76
2023/03/24 12:41:16;;;;;;;17.90;3.25;;;16.60;66.20;;;;;;5017718;28;20111;-76
2023/03/24 12:44:25;;;;;;;15.00;2.47;;;16.60;66.40;;;;;;5035293;28;20052;-77
2023/03/24 12:47:17;;;;;;;14.32;2.70;;;16.60;66.40;;;;;;5005568;28;20057;-80
2023/03/24 12:50:04;;;;;;;13.35;2.70;;;16.60;66.50;;;;;;5016272;28;20138;-80
2023/03/24 12:52:48;;;;;;;15.52;3.00;;;16.60;66.60;;;;;;5016157;28;20408;-76
2023/03/24 12:55:18;;;;;;;12.98;2.85;;;16.60;66.60;;;;;;5016377;28;20053;-77
2023/03/24 12:58:07;;;;;;;13.93;2.30;;;16.60;66.60;;;;;;5001732;28;20053;-78
2023/03/24 13:00:42;;;;;;;12.18;2.78;;;16.50;66.60;;;;;;5034963;28;20452;-78
2023/03/24 13:03:17;;;;;;;12.02;2.42;;;16.50;66.60;;;;;;5034820;28;20056;-77
2023/03/24 13:05:52;;;;;;;13.57;2.60;;;16.50;66.70;;;;;;5017966;28;20530;-75
2023/03/24 13:08:28;;;;;;;15.65;3.03;;;16.50;66.60;;;;;;5017915;28;20475;-76
2023/03/24 13:11:08;;;;;;;10.10;2.50;;;16.50;66.70;;;;;;5017854;28;20376;-76
2023/03/24 13:13:39;;;;;;;9.65;1.95;;;16.50;66.50;;;;;;5017785;28;20448;-75
2023/03/24 13:16:15;;;;;;;9.65;2.53;;;16.40;66.70;;;;;;5034967;28;20095;-76
2023/03/24 13:18:52;;;;;;;11.32;2.55;;;16.50;66.80;;;;;;5035038;28;20061;-77
2023/03/24 13:21:20;;;;;;;8.25;2.03;;;16.40;66.70;;;;;;5013765;28;20058;-76
2023/03/24 13:24:06;;;;;;;10.68;2.45;;;16.40;66.80;;;;;;4997768;28;20049;-76
2023/03/24 13:26:50;;;;;;;7.75;2.05;;;16.40;66.80;;;;;;4998170;28;20050;-76
2023/03/24 13:29:22;;;;;;;7.32;1.98;;;16.40;66.80;;;;;;4999769;28;20050;-74
2023/03/24 13:32:07;;;;;;;9.07;2.22;;;16.40;66.70;;;;;;4982376;28;20137;-75
2023/03/24 13:35:21;;;;;;;25.40;3.50;;;16.40;66.80;;;;;;4999279;28;20058;-77
2023/03/24 13:38:14;;;;;;;26.83;4.03;;;16.40;67.40;;;;;;4966111;28;20058;-75
2023/03/24 13:40:40;;;;;;;17.48;3.20;;;16.40;67.20;;;;;;4999455;28;20109;-76
2023/03/24 13:43:15;;;;;;;19.85;3.80;;;16.40;67.10;;;;;;4999250;28;20415;-76
2023/03/24 13:45:50;;;;;;;27.90;4.00;;;16.30;67.00;;;;;;4995108;28;20057;-79
2023/03/24 13:48:26;;;;;;;21.98;3.35;;;16.30;67.20;;;;;;4988460;28;20420;-75
2023/03/24 13:50:59;;;;;;;19.02;3.58;;;16.30;67.20;;;;;;4999291;28;20051;-76
2023/03/24 13:53:36;;;;;;;23.58;3.55;;;16.30;67.30;;;;;;4999191;28;20054;-78
2023/03/24 13:56:05;;;;;;;25.35;4.07;;;16.30;67.40;;;;;;4998863;28;20385;-76
2023/03/24 13:58:47;;;;;;;20.95;3.28;;;16.30;67.60;;;;;;4998785;28;20058;-77
2023/03/24 14:01:32;;;;;;;25.60;3.72;;;16.30;67.60;;;;;;4998542;28;20054;-77
2023/03/24 14:04:21;;;;;;;24.42;4.07;;;16.40;67.70;;;;;;4979727;28;20369;-77
2023/03/24 14:06:51;;;;;;;18.67;3.72;;;16.30;67.70;;;;;;4991571;28;20057;-78
2023/03/24 14:09:24;;;;;;;26.13;4.35;;;16.30;67.80;;;;;;4994949;28;20122;-75
2023/03/24 14:12:02;;;;;;;18.10;3.47;;;16.20;67.90;;;;;;4986829;28;20365;-77
2023/03/24 14:14:48;;;;;;;22.58;3.83;;;16.20;68.10;;;;;;4979244;28;20167;-75
2023/03/24 14:17:14;;;;;;;22.17;4.05;;;16.20;68.30;;;;;;4977836;28;20137;-78
2023/03/24 14:20:01;;;;;;;11.88;2.50;;;16.10;68.30;;;;;;4987577;28;20042;-75
2023/03/24 14:22:32;;;;;;;13.32;2.90;;;16.10;68.20;;;;;;5017678;28;20054;-77
2023/03/24 14:25:22;;;;;;;11.48;2.63;;;16.10;68.60;;;;;;5005604;28;20042;-75
2023/03/24 14:27:51;;;;;;;11.68;2.53;;;16.10;68.40;;;;;;4970323;28;20065;-76
2023/03/24 14:30:30;;;;;;;16.60;3.47;;;16.10;68.80;;;;;;4979423;28;20051;-78
2023/03/24 14:32:58;;;;;;;16.15;3.05;;;16.10;68.70;;;;;;4993582;28;20045;-76
2023/03/24 14:35:45;;;;;;;14.30;2.45;;;16.00;68.80;;;;;;4981007;28;20497;-77
2023/03/24 14:38:14;;;;;;;14.95;2.85;;;16.10;68.70;;;;;;4996878;28;20113;-78
2023/03/24 14:40:43;;;;;;;18.15;2.85;;;16.00;69.10;;;;;;4995673;28;20077;-75
2023/03/24 14:43:17;;;;;;;20.00;2.78;;;16.00;69.30;;;;;;4980139;28;20089;-77
2023/03/24 14:45:53;;;;;;;10.65;2.05;;;16.00;69.40;;;;;;4966838;28;20129;-78
2023/03/24 14:48:30;;;;;;;16.73;2.95;;;16.10;69.40;;;;;;4997229;28;20122;-80
2023/03/24 14:51:19;;;;;;;21.63;3.53;;;16.10;69.60;;;;;;4997289;28;20101;-78
2023/03/24 14:53:58;;;;;;;16.20;2.97;;;16.10;69.60;;;;;;4958553;28;20058;-79
2023/03/24 14:56:32;;;;;;;17.38;3.15;;;16.10;69.70;;;;;;4964301;28;20132;-80
2023/03/24 14:59:16;;;;;;;12.95;2.53;;;16.10;69.60;;;;;;4997740;28;20046;-78
2023/03/24 15:01:47;;;;;;;15.68;2.33;;;16.20;70.20;;;;;;4998092;28;20038;-77
2023/03/24 15:04:13;;;;;;;22.15;3.30;;;16.20;69.60;;;;;;4989492;28;20105;-78
2023/03/24 15:06:47;;;;;;;17.30;3.03;;;16.20;69.70;;;;;;5007368;28;20058;-77
2023/03/24 15:09:16;;;;;;;22.83;3.97;;;16.20;69.80;;;;;;5017360;28;20050;-78
2023/03/24 15:11:43;;;;;;;24.60;3.58;;;16.20;69.90;;;;;;5017438;28;20117;-81
2023/03/24 15:14:24;;;;;;;40.70;5.18;;;16.20;70.20;;;;;;5011065;28;20030;-80
2023/03/24 15:17:25;;;;;;;32.05;4.13;;;16.20;70.20;;;;;;4997381;28;20042;-78
2023/03/24 15:19:52;;;;;;;30.50;3.97;;;16.20;70.30;;;;;;4983678;28;20461;-80
2023/03/24 15:22:19;;;;;;;33.72;4.93;;;16.20;70.50;;;;;;4999423;28;20409;-79
2023/03/24 15:24:50;;;;;;;24.10;4.75;;;16.20;70.80;;;;;;5014697;28;20108;-79
2023/03/24 15:27:19;;;;;;;34.55;4.43;;;16.20;70.70;;;;;;5016493;28;20350;-82
2023/03/24 15:29:54;;;;;;;34.85;6.00;;;16.20;70.70;;;;;;5016977;28;20108;-77
2023/03/24 15:32:23;;;;;;;31.95;4.57;;;16.20;71.30;;;;;;4999932;28;20064;-81
2023/03/24 15:34:52;;;;;;;22.67;4.32;;;16.20;70.60;;;;;;4983800;28;20345;-82
2023/03/24 15:37:21;;;;;;;24.73;4.63;;;16.30;70.60;;;;;;4983975;28;20120;-81
2023/03/24 15:39:53;;;;;;;27.40;3.67;;;16.20;70.50;;;;;;4999746;28;20424;-81
2023/03/24 15:42:23;;;;;;;19.48;3.00;;;16.20;70.30;;;;;;4999014;28;20046;-83
2023/03/24 15:44:53;;;;;;;22.42;3.30;;;16.20;70.10;;;;;;5019743;28;20045;-79
2023/03/24 15:47:26;;;;;;;23.33;3.50;;;16.20;69.80;;;;;;5034857;28;20061;-80
2023/03/24 15:49:59;;;;;;;19.67;4.70;;;16.30;68.60;;;;;;5035019;28;20475;-85
2023/03/24 15:52:33;;;;;;;16.45;3.13;;;16.30;66.70;;;;;;5035721;28;20037;-80
2023/03/24 15:55:23;;;;;;;14.25;3.53;;;16.30;65.00;;;;;;5018524;28;20053;-78
2023/03/24 15:57:49;;;;;;;17.58;3.15;;;16.30;65.10;;;;;;5035866;28;20049;-83
2023/03/24 16:00:22;;;;;;;13.68;2.58;;;16.20;64.70;;;;;;5002476;28;20045;-80
2023/03/24 16:02:54;;;;;;;14.30;3.00;;;16.20;63.90;;;;;;5016803;28;20148;-80
2023/03/24 16:05:28;;;;;;;22.13;4.60;;;16.10;63.00;;;;;;5002465;28;20060;-83
2023/03/24 16:08:04;;;;;;;19.25;3.60;;;16.10;63.40;;;;;;5035935;28;20124;-83
2023/03/24 16:10:32;;;;;;;22.52;5.70;;;16.00;64.50;;;;;;5018917;28;20415;-81
2023/03/24 16:13:17;;;;;;;23.35;4.88;;;15.90;65.50;;;;;;5035857;28;20056;-81
2023/03/24 16:15:53;;;;;;;35.03;5.47;;;15.80;65.60;;;;;;5018555;28;20132;-82
2023/03/24 16:18:25;;;;;;;37.40;7.00;;;15.80;65.80;;;;;;5018214;28;20041;-81
2023/03/24 16:20:51;;;;;;;30.00;5.05;;;15.80;67.00;;;;;;5018312;28;20514;-81
2023/03/24 16:23:17;;;;;;;28.13;5.40;;;15.80;68.00;;;;;;5001774;28;20041;-83
2023/03/24 16:25:43;;;;;;;32.42;5.50;;;15.90;68.80;;;;;;5018549;28;20079;-83
2023/03/24 16:28:16;;;;;;;37.50;5.82;;;15.90;69.20;;;;;;5017927;28;20037;-82
2023/03/24 16:30:44;;;;;;;25.45;4.93;;;15.90;69.80;;;;;;5034527;28;20384;-82
2023/03/24 16:33:11;;;;;;;28.65;5.38;;;16.00;69.90;;;;;;4987009;28;20096;-82
2023/03/24 16:35:37;;;;;;;31.02;4.53;;;16.00;70.10;;;;;;4998285;28;20060;-82
2023/03/24 16:38:03;;;;;;;36.33;6.20;;;16.00;70.40;;;;;;4982326;28;20038;-83
2023/03/24 16:40:43;;;;;;;34.47;5.57;;;16.00;70.40;;;;;;4997576;28;20049;-84
2023/03/24 16:43:09;;;;;;;27.58;5.28;;;16.10;70.80;;;;;;5015582;28;20472;-79
2023/03/24 16:45:35;;;;;;;25.98;4.50;;;16.10;70.70;;;;;;4998303;28;20088;-80
2023/03/24 16:48:01;;;;;;;27.90;4.60;;;16.10;70.80;;;;;;5015445;28;20072;-81
2023/03/24 16:50:32;;;;;;;27.33;4.70;;;16.10;70.90;;;;;;4998344;28;20460;-81
2023/03/24 16:52:58;;;;;;;34.63;5.03;;;16.10;71.00;;;;;;4971281;28;20042;-80
2023/03/24 16:55:45;;;;;;;25.52;4.05;;;16.20;71.00;;;;;;4999435;28;20048;-82
2023/03/24 16:58:13;;;;;;;31.75;4.85;;;16.20;71.10;;;;;;5016901;28;20045;-79
2023/03/24 17:00:42;;;;;;;40.45;5.28;;;16.20;71.20;;;;;;5034469;28;20360;-79
2023/03/24 17:03:09;;;;;;;16.40;3.80;;;16.20;71.20;;;;;;5001024;28;20073;-81
2023/03/24 17:05:48;;;;;;;17.17;3.67;;;16.10;70.10;;;;;;5001571;28;20415;-80
2023/03/24 17:08:15;;;;;;;26.75;5.32;;;16.10;69.70;;;;;;5017422;28;20041;-78
2023/03/24 17:10:54;;;;;;;17.00;3.22;;;16.10;70.30;;;;;;5030772;28;20046;-81
2023/03/24 17:13:50;;;;;;;33.22;4.75;;;16.10;70.40;;;;;;5015229;28;20433;-82
2023/03/24 17:16:19;;;;;;;21.08;4.47;;;16.10;70.80;;;;;;4997242;28;20097;-81
2023/03/24 17:18:48;;;;;;;38.35;5.18;;;16.10;70.80;;;;;;4998073;28;20056;-79
2023/03/24 17:21:16;;;;;;;24.40;4.78;;;16.10;70.80;;;;;;4997641;28;20411;-82
2023/03/24 17:23:45;;;;;;;25.88;4.50;;;16.20;70.80;;;;;;4980069;28;20045;-80
2023/03/24 17:26:11;;;;;;;22.58;4.25;;;16.10;70.70;;;;;;4978197;28;20049;-81
2023/03/24 17:28:37;;;;;;;17.70;3.50;;;16.20;70.70;;;;;;4978387;28;20047;-80
2023/03/24 17:31:03;;;;;;;15.57;2.97;;;16.10;70.50;;;;;;4962186;28;20126;-77
2023/03/24 17:33:29;;;;;;;13.10;3.30;;;16.20;70.50;;;;;;4995623;28;20041;-80
2023/03/24 17:35:55;;;;;;;20.10;3.55;;;16.20;70.50;;;;;;4962339;28;20066;-81
2023/03/24 17:38:21;;;;;;;19.02;3.75;;;16.10;70.30;;;;;;4962845;28;20362;-80
2023/03/24 17:40:47;;;;;;;16.77;4.25;;;16.10;70.20;;;;;;4962081;28;20053;-80
2023/03/24 17:43:13;;;;;;;18.98;3.03;;;16.20;70.20;;;;;;4978517;28;20042;-80
2023/03/24 17:45:42;;;;;;;12.25;2.45;;;16.20;70.20;;;;;;4977976;28;20038;-79
2023/03/24 17:48:08;;;;;;;14.60;3.40;;;16.10;70.10;;;;;;4962078;28;20058;-80
2023/03/24 17:50:33;;;;;;;20.42;3.42;;;16.10;70.00;;;;;;4961965;28;20068;-80
2023/03/24 17:52:59;;;;;;;15.93;3.47;;;16.10;70.00;;;;;;4995182;28;20101;-81
2023/03/24 17:55:25;;;;;;;15.93;3.78;;;16.10;69.90;;;;;;4961637;28;20034;-79
2023/03/24 17:57:51;;;;;;;12.57;2.47;;;16.10;69.80;;;;;;4961888;28;20481;-80
2023/03/24 18:00:20;;;;;;;14.63;2.17;;;16.10;69.80;;;;;;4961819;28;20050;-80
2023/03/24 18:02:45;;;;;;;13.77;3.10;;;16.10;69.80;;;;;;4995365;28;20345;-79
2023/03/24 18:05:12;;;;;;;12.80;3.22;;;16.10;69.70;;;;;;4978247;28;20139;-80
2023/03/24 18:07:39;;;;;;;11.13;3.08;;;16.10;69.70;;;;;;4977816;28;20106;-81
2023/03/24 18:10:06;;;;;;;11.32;2.47;;;16.10;69.70;;;;;;4995396;28;20413;-80
2023/03/24 18:12:32;;;;;;;12.43;2.65;;;16.10;69.60;;;;;;4978429;28;20058;-78
2023/03/24 18:14:58;;;;;;;8.70;2.20;;;16.10;69.60;;;;;;4981334;28;20046;-80
2023/03/24 18:17:24;;;;;;;12.23;3.40;;;16.10;69.60;;;;;;4981545;28;20062;-80
2023/03/24 18:44:36;;;;;;;15.10;3.35;;;15.00;64.80;;;;;;5707484;23;20053;-74
2023/03/24 18:47:02;;;;;;;12.38;3.42;;;15.00;65.20;;;;;;4883143;29;20053;-77